Time;durP1;ratioP1;P1;durP2;ratioP2;P2;SDS_P1;SDS_P2;PMS_P1;PMS_P2;Temp;Humidity;BMP_temperature;BMP_pressure;BME280_temperature;BME280_humidity;BME280_pressure;Samples;Min_cycle;Max_cycle;Signal;HPM_P1;HPM_P2
2023/08/14 00:01:16;;;;;;;2.47;1.50;;;;;;;21.50;nan;100484.16;4983184;28;20173;-74
2023/08/14 00:03:42;;;;;;;2.10;1.65;;;;;;;21.51;nan;100492.94;4978138;28;20814;-73
2023/08/14 00:06:07;;;;;;;1.50;1.40;;;;;;;21.51;nan;100490.28;4979382;28;20710;-73
2023/08/14 00:09:04;;;;;;;1.70;1.60;;;;;;;21.52;nan;100491.97;4982605;28;20492;-73
2023/08/14 00:11:29;;;;;;;2.00;1.80;;;;;;;21.52;nan;100486.69;4982547;28;20160;-73
2023/08/14 00:13:55;;;;;;;2.45;1.83;;;;;;;21.52;nan;100491.97;4995436;28;20030;-72
2023/08/14 00:16:21;;;;;;;1.52;1.38;;;;;;;21.51;nan;100488.47;4988005;28;20857;-73
2023/08/14 00:18:47;;;;;;;1.98;1.70;;;;;;;21.51;nan;100488.47;4981216;28;20034;-73
2023/08/14 00:21:12;;;;;;;1.85;1.65;;;;;;;21.52;nan;100490.16;4981687;28;20137;-73
2023/08/14 00:23:38;;;;;;;1.67;1.58;;;;;;;21.51;nan;100495.56;4979287;28;20054;-72
2023/08/14 00:26:04;;;;;;;1.70;1.60;;;;;;;21.52;nan;100494.59;4978380;28;20034;-73
2023/08/14 00:28:29;;;;;;;1.73;1.45;;;;;;;21.52;nan;100491.97;4982250;28;20040;-73
2023/08/14 00:30:55;;;;;;;1.92;1.50;;;;;;;21.52;nan;100487.53;4981181;28;20026;-73
2023/08/14 00:33:20;;;;;;;3.35;1.70;;;;;;;21.51;nan;100485.84;4991421;28;20185;-72
2023/08/14 00:35:45;;;;;;;1.70;1.60;;;;;;;21.52;nan;100489.31;4989567;28;20034;-72
2023/08/14 00:38:11;;;;;;;1.55;1.45;;;;;;;21.52;nan;100489.31;4980540;28;20127;-73
2023/08/14 00:40:36;;;;;;;1.42;1.33;;;;;;;21.51;nan;100488.47;4980801;28;20034;-72
2023/08/14 00:43:01;;;;;;;1.50;1.40;;;;;;;21.52;nan;100478.75;4987433;28;20079;-72
2023/08/14 00:45:27;;;;;;;2.10;1.90;;;;;;;21.51;nan;100485.84;4975235;28;20060;-73
2023/08/14 00:47:52;;;;;;;1.70;1.60;;;;;;;21.51;nan;100480.56;4981215;28;20029;-72
2023/08/14 00:50:18;;;;;;;1.70;1.60;;;;;;;21.51;nan;100470.00;4979961;28;20022;-72
2023/08/14 00:52:46;;;;;;;2.95;1.80;;;;;;;21.52;nan;100471.66;4982340;28;20034;-74
2023/08/14 00:55:16;;;;;;;2.03;1.70;;;;;;;21.52;nan;100468.19;4973978;28;20371;-72
2023/08/14 00:57:41;;;;;;;;;;;;;;;21.52;nan;100461.09;4979930;28;20044;-73
2023/08/14 01:00:07;;;;;;;1.47;1.33;;;;;;;21.51;nan;100462.06;4981389;28;19917;-72
2023/08/14 01:02:33;;;;;;;1.65;1.55;;;;;;;21.51;nan;100469.16;4987504;28;20821;-71
2023/08/14 01:04:59;;;;;;;1.63;1.30;;;;;;;21.52;nan;100473.47;4993217;28;20884;-72
2023/08/14 01:07:24;;;;;;;1.70;1.60;;;;;;;21.52;nan;100470.84;4981473;28;20050;-72
2023/08/14 01:09:50;;;;;;;2.15;1.67;;;;;;;21.52;nan;100473.47;4981897;28;20038;-72
2023/08/14 01:13:01;;;;;;;3.28;1.60;;;;;;;21.52;nan;100460.25;4986490;28;20526;-72
2023/08/14 01:15:33;;;;;;;1.73;1.63;;;;;;;21.53;nan;100459.31;4987033;28;21247;-73
2023/08/14 01:18:03;;;;;;;2.22;1.50;;;;;;;21.52;nan;100460.25;4980047;28;20742;-72
2023/08/14 01:20:31;;;;;;;1.50;1.40;;;;;;;21.51;nan;100464.72;4980069;28;20770;-72
2023/08/14 01:23:02;;;;;;;1.55;1.45;;;;;;;21.52;nan;100462.91;4981269;28;20057;-72
2023/08/14 01:25:34;;;;;;;1.50;1.40;;;;;;;21.52;nan;100462.91;4974852;28;20101;-73
2023/08/14 01:28:01;;;;;;;1.80;1.67;;;;;;;21.53;nan;100456.66;4981241;28;20636;-72
2023/08/14 01:30:26;;;;;;;1.75;1.55;;;;;;;21.52;nan;100452.34;4978990;28;20029;-72
2023/08/14 01:32:52;;;;;;;1.88;1.60;;;;;;;21.53;nan;100451.38;4977825;28;20045;-73
2023/08/14 01:35:18;;;;;;;1.83;1.52;;;;;;;21.52;nan;100453.19;4991473;28;20107;-73
2023/08/14 01:37:54;;;;;;;1.52;1.42;;;;;;;21.52;nan;100447.06;4979314;28;20057;-73
2023/08/14 01:40:20;;;;;;;2.17;1.70;;;;;;;21.52;nan;100457.63;4981099;28;20065;-72
2023/08/14 01:42:48;;;;;;;1.48;1.38;;;;;;;21.53;nan;100459.31;4992097;28;20030;-73
2023/08/14 01:45:17;;;;;;;1.80;1.70;;;;;;;21.53;nan;100465.41;4996352;28;20076;-73
2023/08/14 01:47:45;;;;;;;1.50;1.40;;;;;;;21.53;nan;100464.59;4982459;28;20030;-71
2023/08/14 01:50:15;;;;;;;1.70;1.60;;;;;;;21.54;nan;100460.97;4981851;28;20030;-72
2023/08/14 01:52:41;;;;;;;1.45;1.35;;;;;;;21.52;nan;100458.47;4985141;28;20580;-73
2023/08/14 01:55:06;;;;;;;1.67;1.58;;;;;;;21.53;nan;100465.41;4996296;28;20030;-72
2023/08/14 01:57:33;;;;;;;1.90;1.80;;;;;;;21.54;nan;100471.53;4984282;28;20068;-72
2023/08/14 01:59:58;;;;;;;1.67;1.48;;;;;;;21.54;nan;100471.53;4983699;28;20092;-72
2023/08/14 02:02:24;;;;;;;1.70;1.60;;;;;;;21.54;nan;100468.91;4981378;28;21075;-73
2023/08/14 02:04:50;;;;;;;1.73;1.33;;;;;;;21.52;nan;100474.31;4976674;28;20612;-73
2023/08/14 02:07:15;;;;;;;2.55;1.70;;;;;;;21.53;nan;100465.41;4983279;28;20033;-72
2023/08/14 02:09:40;;;;;;;2.38;1.60;;;;;;;21.54;nan;100466.25;4983964;28;20129;-73
2023/08/14 02:12:06;;;;;;;1.73;1.60;;;;;;;21.54;nan;100463.63;4964169;28;20029;-72
2023/08/14 02:14:31;;;;;;;2.15;1.50;;;;;;;21.53;nan;100468.06;4979749;28;20107;-73
2023/08/14 02:16:56;;;;;;;2.53;1.40;;;;;;;21.53;nan;100470.69;4981979;28;20686;-72
2023/08/14 02:19:22;;;;;;;1.45;1.35;;;;;;;21.53;nan;100454.84;4982534;28;20060;-72
2023/08/14 02:21:48;;;;;;;1.60;1.50;;;;;;;21.53;nan;100443.44;4982131;28;20042;-71
2023/08/14 02:24:26;;;;;;;1.48;1.38;;;;;;;21.53;nan;100440.81;4978894;28;20485;-74
2023/08/14 02:26:51;;;;;;;1.90;1.67;;;;;;;21.52;nan;100441.78;4982136;28;20125;-74
2023/08/14 02:29:17;;;;;;;2.28;1.73;;;;;;;21.53;nan;100446.94;4982852;28;20026;-73
2023/08/14 02:31:45;;;;;;;1.42;1.33;;;;;;;21.54;nan;100450.41;4984420;28;20030;-73
2023/08/14 02:34:10;;;;;;;1.67;1.58;;;;;;;21.54;nan;100439.84;4978781;28;20041;-73
2023/08/14 02:36:36;;;;;;;1.73;1.40;;;;;;;21.53;nan;100435.53;4979541;28;20064;-72
2023/08/14 02:39:01;;;;;;;1.90;1.45;;;;;;;21.54;nan;100447.75;4981808;28;20034;-73
2023/08/14 02:41:28;;;;;;;1.83;1.52;;;;;;;21.53;nan;100444.28;4981237;28;20698;-73
2023/08/14 02:43:54;;;;;;;1.55;1.45;;;;;;;21.52;nan;100442.59;4995409;28;20039;-72
2023/08/14 02:46:19;;;;;;;1.65;1.50;;;;;;;21.53;nan;100441.66;4988832;28;20042;-74
2023/08/14 02:48:45;;;;;;;2.00;1.55;;;;;;;21.53;nan;100438.16;4980670;28;20038;-73
2023/08/14 02:51:10;;;;;;;1.70;1.60;;;;;;;21.53;nan;100419.69;4979856;28;20035;-73
2023/08/14 02:53:36;;;;;;;2.42;1.77;;;;;;;21.52;nan;100416.19;4985445;28;20486;-73
2023/08/14 02:56:01;;;;;;;2.28;1.60;;;;;;;21.53;nan;100425.78;4963532;28;20461;-74
2023/08/14 02:58:26;;;;;;;1.55;1.38;;;;;;;21.53;nan;100427.59;4982699;28;20042;-74
2023/08/14 03:00:52;;;;;;;1.92;1.83;;;;;;;21.53;nan;100423.16;4984802;28;20542;-73
2023/08/14 03:03:17;;;;;;;2.05;1.52;;;;;;;21.53;nan;100427.59;4980325;28;20109;-73
2023/08/14 03:05:57;;;;;;;1.42;1.33;;;;;;;21.53;nan;100427.59;4991613;28;20546;-72
2023/08/14 03:08:22;;;;;;;1.50;1.40;;;;;;;21.53;nan;100423.16;4983205;28;20040;-72
2023/08/14 03:10:48;;;;;;;1.33;1.23;;;;;;;21.54;nan;100416.06;4982626;28;20034;-72
2023/08/14 03:13:14;;;;;;;1.88;1.48;;;;;;;21.53;nan;100412.59;4992752;28;20033;-73
2023/08/14 03:15:39;;;;;;;2.47;1.75;;;;;;;21.53;nan;100411.75;4992645;28;20068;-72
2023/08/14 03:18:04;;;;;;;1.60;1.50;;;;;;;21.53;nan;100406.47;4981721;28;20813;-73
2023/08/14 03:21:16;;;;;;;1.50;1.40;;;;;;;21.53;nan;100412.59;4982623;28;20021;-73
2023/08/14 03:23:43;;;;;;;1.88;1.67;;;;;;;21.52;nan;100408.28;4991481;28;20862;-74
2023/08/14 03:26:08;;;;;;;1.50;1.40;;;;;;;21.53;nan;100415.22;4989235;28;20076;-72
2023/08/14 03:28:34;;;;;;;1.77;1.67;;;;;;;21.54;nan;100408.13;4983490;28;20030;-73
2023/08/14 03:31:00;;;;;;;1.55;1.45;;;;;;;21.53;nan;100409.09;4982862;28;20036;-74
2023/08/14 03:33:25;;;;;;;1.50;1.30;;;;;;;21.52;nan;100404.78;4993228;28;20040;-74
2023/08/14 03:35:54;;;;;;;1.75;1.27;;;;;;;21.53;nan;100403.81;4992061;28;20038;-74
2023/08/14 03:38:19;;;;;;;1.97;1.43;;;;;;;21.54;nan;100413.41;4983353;28;20035;-74
2023/08/14 03:40:46;;;;;;;1.92;1.50;;;;;;;21.54;nan;100413.41;4983910;28;20064;-73
2023/08/14 03:43:11;;;;;;;2.10;1.70;;;;;;;21.53;nan;100419.69;4992189;28;20030;-73
2023/08/14 03:45:37;;;;;;;1.98;1.30;;;;;;;21.54;nan;100410.78;4993728;28;20038;-73
2023/08/14 03:48:03;;;;;;;1.40;1.30;;;;;;;21.54;nan;100408.13;4982850;28;20036;-75
2023/08/14 03:50:28;;;;;;;1.48;1.38;;;;;;;21.53;nan;100409.94;4981392;28;20384;-74
2023/08/14 03:52:55;;;;;;;2.47;1.40;;;;;;;21.54;nan;100424.00;4980751;28;20042;-74
2023/08/14 03:55:23;;;;;;;1.85;1.50;;;;;;;21.53;nan;100417.88;4977859;28;20842;-74
2023/08/14 03:57:48;;;;;;;1.50;1.40;;;;;;;21.54;nan;100418.72;4980602;28;20034;-73
2023/08/14 04:00:14;;;;;;;1.40;1.30;;;;;;;21.53;nan;100419.69;4983040;28;20041;-71
2023/08/14 04:02:40;;;;;;;1.42;1.30;;;;;;;21.53;nan;100417.88;4982160;28;20035;-74
2023/08/14 04:05:05;;;;;;;1.40;1.30;;;;;;;21.54;nan;100424.00;4976707;28;20042;-74
2023/08/14 04:07:31;;;;;;;1.80;1.50;;;;;;;21.53;nan;100433.72;4982516;28;20040;-73
2023/08/14 04:09:56;;;;;;;1.80;1.50;;;;;;;21.53;nan;100427.59;4983115;28;20053;-73
2023/08/14 04:12:21;;;;;;;1.27;1.17;;;;;;;21.53;nan;100431.06;4980998;28;20045;-74
2023/08/14 04:14:48;;;;;;;1.40;1.30;;;;;;;21.53;nan;100431.06;4975094;28;20113;-72
2023/08/14 04:17:14;;;;;;;1.60;1.50;;;;;;;21.53;nan;100441.66;4980058;28;20026;-73
2023/08/14 04:19:39;;;;;;;1.60;1.50;;;;;;;21.54;nan;100434.56;4980376;28;20026;-72
2023/08/14 04:22:04;;;;;;;1.80;1.40;;;;;;;21.53;nan;100441.66;4980580;28;20146;-73
2023/08/14 04:24:30;;;;;;;1.55;1.45;;;;;;;21.53;nan;100443.44;4979629;28;20030;-73
2023/08/14 04:26:55;;;;;;;1.73;1.50;;;;;;;21.53;nan;100438.16;4981120;28;20029;-73
2023/08/14 04:29:20;;;;;;;1.67;1.48;;;;;;;21.53;nan;100432.88;4982648;28;20036;-73
2023/08/14 04:31:46;;;;;;;1.42;1.30;;;;;;;21.53;nan;100427.59;4982902;28;20113;-73
2023/08/14 04:34:11;;;;;;;1.40;1.30;;;;;;;21.52;nan;100426.75;4975980;28;20065;-73
2023/08/14 04:36:37;;;;;;;1.38;1.27;;;;;;;21.53;nan;100432.88;4984052;28;20205;-73
2023/08/14 04:39:04;;;;;;;1.65;1.40;;;;;;;21.53;nan;100432.88;4982653;28;20146;-73
2023/08/14 04:41:29;;;;;;;1.85;1.67;;;;;;;21.52;nan;100428.56;4963768;28;20045;-73
2023/08/14 04:43:54;;;;;;;1.65;1.35;;;;;;;21.52;nan;100434.69;4975743;28;20042;-72
2023/08/14 04:46:30;;;;;;;2.38;1.80;;;;;;;21.53;nan;100433.72;4980110;28;20063;-72
2023/08/14 04:48:56;;;;;;;1.63;1.40;;;;;;;21.53;nan;100430.25;4980522;28;20114;-73
2023/08/14 04:51:21;;;;;;;1.70;1.48;;;;;;;21.53;nan;100435.53;4981123;28;20057;-73
2023/08/14 04:53:47;;;;;;;1.40;1.30;;;;;;;21.53;nan;100438.16;4982749;28;20045;-73
2023/08/14 04:56:12;;;;;;;1.27;1.17;;;;;;;21.53;nan;100443.44;4979971;28;20792;-72
2023/08/14 04:58:37;;;;;;;1.35;1.23;;;;;;;21.53;nan;100448.72;4981675;28;20463;-73
2023/08/14 05:01:02;;;;;;;1.80;1.42;;;;;;;21.53;nan;100440.81;4982434;28;20037;-73
2023/08/14 05:03:28;;;;;;;1.45;1.35;;;;;;;21.52;nan;100426.75;4993259;28;20025;-72
2023/08/14 05:05:53;;;;;;;1.42;1.30;;;;;;;21.52;nan;100425.94;4986794;28;20029;-74
2023/08/14 05:08:19;;;;;;;1.50;1.40;;;;;;;21.52;nan;100420.66;4980448;28;20034;-74
2023/08/14 05:10:49;;;;;;;2.38;1.40;;;;;;;21.52;nan;100410.91;4982600;28;21266;-72
2023/08/14 05:16:37;;;;;;;1.35;1.25;;;;;;;21.52;nan;100421.47;4981604;28;20119;-74
2023/08/14 05:19:02;;;;;;;1.30;1.20;;;;;;;21.52;nan;100418.84;4981975;28;20161;-74
2023/08/14 05:21:27;;;;;;;1.30;1.20;;;;;;;21.52;nan;100418.00;4981086;28;20493;-73
2023/08/14 05:23:53;;;;;;;1.40;1.30;;;;;;;21.53;nan;100422.31;4977474;28;20034;-73
2023/08/14 05:26:18;;;;;;;1.50;1.40;;;;;;;21.53;nan;100414.38;4981257;28;20030;-73
2023/08/14 05:28:43;;;;;;;1.30;1.15;;;;;;;21.52;nan;100420.66;4981906;28;20212;-74
2023/08/14 05:31:09;;;;;;;1.75;1.65;;;;;;;21.52;nan;100421.47;4981757;28;20446;-74
2023/08/14 05:33:34;;;;;;;2.00;1.63;;;;;;;21.53;nan;100414.38;4980194;28;20030;-74
2023/08/14 05:35:59;;;;;;;1.30;1.20;;;;;;;21.52;nan;100415.34;4990292;28;20136;-73
2023/08/14 05:38:25;;;;;;;1.48;1.38;;;;;;;21.53;nan;100411.75;4981047;28;20493;-73
2023/08/14 05:40:50;;;;;;;1.15;1.05;;;;;;;21.52;nan;100416.19;4980440;28;20168;-73
2023/08/14 05:43:16;;;;;;;1.50;1.40;;;;;;;21.53;nan;100417.03;4976131;28;20077;-72
2023/08/14 05:45:42;;;;;;;1.20;1.10;;;;;;;21.52;nan;100416.19;4976957;28;20076;-74
2023/08/14 05:48:08;;;;;;;1.35;1.25;;;;;;;21.52;nan;100415.34;4981220;28;20487;-74
2023/08/14 05:50:34;;;;;;;1.63;1.52;;;;;;;21.53;nan;100406.47;4980524;28;20049;-73
2023/08/14 05:53:03;;;;;;;1.30;1.20;;;;;;;21.53;nan;100406.47;4965838;28;20086;-74
2023/08/14 05:55:33;;;;;;;1.23;1.20;;;;;;;21.52;nan;100410.06;4975048;28;20057;-73
2023/08/14 05:57:59;;;;;;;1.30;1.20;;;;;;;21.53;nan;100401.19;4981088;28;20053;-72
2023/08/14 06:00:27;;;;;;;1.55;1.45;;;;;;;21.52;nan;100392.41;4981273;28;20075;-74
2023/08/14 06:02:53;;;;;;;1.05;1.05;;;;;;;21.53;nan;100395.91;4989008;28;20100;-73
2023/08/14 06:05:18;;;;;;;1.65;1.52;;;;;;;21.53;nan;100388.81;4992700;28;20160;-74
2023/08/14 06:07:44;;;;;;;1.20;1.10;;;;;;;21.53;nan;100380.06;4980158;28;20026;-73
2023/08/14 06:10:10;;;;;;;1.35;1.30;;;;;;;21.53;nan;100374.78;4979738;28;21709;-73
2023/08/14 06:12:35;;;;;;;1.42;1.33;;;;;;;21.53;nan;100380.06;4977893;28;20501;-73
2023/08/14 06:15:01;;;;;;;1.95;1.50;;;;;;;21.54;nan;100394.94;4974139;28;20422;-73
2023/08/14 06:17:27;;;;;;;1.60;1.27;;;;;;;21.54;nan;100397.56;4979937;28;20026;-74
2023/08/14 06:19:53;;;;;;;1.40;1.30;;;;;;;21.53;nan;100396.72;4979740;28;20034;-73
2023/08/14 06:22:19;;;;;;;1.40;1.20;;;;;;;21.54;nan;100405.50;4979009;28;20133;-72
2023/08/14 06:24:45;;;;;;;1.45;1.33;;;;;;;21.54;nan;100403.69;4974083;28;20034;-74
2023/08/14 06:27:10;;;;;;;1.92;1.30;;;;;;;21.54;nan;100405.50;4981052;28;20092;-73
2023/08/14 06:29:36;;;;;;;1.30;1.20;;;;;;;21.54;nan;100402.84;4984414;28;20125;-73
2023/08/14 06:32:01;;;;;;;1.40;1.30;;;;;;;21.54;nan;100397.56;4981093;28;20026;-73
2023/08/14 06:34:27;;;;;;;1.92;1.50;;;;;;;21.54;nan;100390.50;4975336;28;20681;-73
2023/08/14 06:36:53;;;;;;;1.20;1.10;;;;;;;21.54;nan;100393.13;4980474;28;20093;-73
2023/08/14 06:39:18;;;;;;;1.42;1.33;;;;;;;21.54;nan;100393.13;4982086;28;20030;-74
2023/08/14 06:41:44;;;;;;;1.60;1.50;;;;;;;21.54;nan;100394.94;4981596;28;20037;-73
2023/08/14 06:44:09;;;;;;;1.60;1.23;;;;;;;21.55;nan;100378.13;4976391;28;20749;-73
2023/08/14 06:46:35;;;;;;;1.13;1.13;;;;;;;21.54;nan;100366.72;4979930;28;20040;-73
2023/08/14 06:49:01;;;;;;;1.17;1.17;;;;;;;21.55;nan;100372.84;4982391;28;20881;-73
2023/08/14 06:51:26;;;;;;;1.30;1.20;;;;;;;21.56;nan;100377.19;4965538;28;20517;-74
2023/08/14 06:53:51;;;;;;;1.40;1.30;;;;;;;21.54;nan;100374.63;4991562;28;20030;-73
2023/08/14 06:56:16;;;;;;;1.08;1.08;;;;;;;21.55;nan;100371.03;4990597;28;20961;-73
2023/08/14 06:58:42;;;;;;;1.35;1.25;;;;;;;21.56;nan;100379.81;4983891;28;20084;-71
2023/08/14 07:01:07;;;;;;;1.48;1.38;;;;;;;21.57;nan;100386.78;4982653;28;21286;-73
2023/08/14 07:03:33;;;;;;;1.90;1.48;;;;;;;21.56;nan;100383.31;4985719;28;20756;-73
2023/08/14 07:05:58;;;;;;;1.60;1.50;;;;;;;21.56;nan;100377.19;4985451;28;20029;-73
2023/08/14 07:08:24;;;;;;;1.40;1.30;;;;;;;21.56;nan;100370.09;4980608;28;20136;-72
2023/08/14 07:10:49;;;;;;;1.40;1.30;;;;;;;21.56;nan;100379.81;4981318;28;20030;-72
2023/08/14 07:13:15;;;;;;;1.40;1.30;;;;;;;21.57;nan;100389.41;4968505;28;20132;-73
2023/08/14 07:15:40;;;;;;;1.40;1.30;;;;;;;21.57;nan;100389.41;4985745;28;20044;-72
2023/08/14 07:18:06;;;;;;;1.35;1.20;;;;;;;21.57;nan;100395.53;4982351;28;20038;-72
2023/08/14 07:20:31;;;;;;;1.63;1.30;;;;;;;21.58;nan;100393.75;4982833;28;20041;-73
2023/08/14 07:22:57;;;;;;;1.20;1.10;;;;;;;21.57;nan;100398.19;4985416;28;20136;-72
2023/08/14 07:25:23;;;;;;;1.42;1.33;;;;;;;21.56;nan;100404.44;4985898;28;20165;-73
2023/08/14 07:27:48;;;;;;;1.30;1.20;;;;;;;21.58;nan;100396.38;4982340;28;20044;-72
2023/08/14 07:30:14;;;;;;;1.20;1.10;;;;;;;21.57;nan;100402.63;4982031;28;20042;-73
2023/08/14 07:32:39;;;;;;;1.50;1.40;;;;;;;21.58;nan;100404.31;4982913;28;20022;-73
2023/08/14 07:35:06;;;;;;;1.35;1.25;;;;;;;21.58;nan;100414.88;4984231;28;20034;-73
2023/08/14 07:37:31;;;;;;;1.27;1.17;;;;;;;21.59;nan;100419.19;4979852;28;20076;-72
2023/08/14 07:39:56;;;;;;;1.20;1.10;;;;;;;21.59;nan;100427.13;4981114;28;20114;-72
2023/08/14 07:42:21;;;;;;;1.42;1.33;;;;;;;21.58;nan;100415.72;4981649;28;20108;-73
2023/08/14 07:44:47;;;;;;;1.35;1.25;;;;;;;21.58;nan;100413.06;4975168;28;20092;-73
2023/08/14 07:47:12;;;;;;;1.35;1.25;;;;;;;21.58;nan;100401.66;4980447;28;20064;-72
2023/08/14 07:49:38;;;;;;;1.25;1.15;;;;;;;21.58;nan;100412.22;4979265;28;20108;-74
2023/08/14 07:52:04;;;;;;;1.58;1.20;;;;;;;21.58;nan;100399.84;4980404;28;20734;-73
2023/08/14 07:54:31;;;;;;;1.13;1.02;;;;;;;21.59;nan;100395.41;4975075;28;20212;-73
2023/08/14 07:56:57;;;;;;;0.90;0.90;;;;;;;21.58;nan;100404.31;4980946;28;20030;-74
2023/08/14 07:59:22;;;;;;;1.60;1.50;;;;;;;21.59;nan;100412.09;4981177;28;20037;-73
2023/08/14 08:01:48;;;;;;;1.50;1.40;;;;;;;21.58;nan;100409.59;4980118;28;20141;-73
2023/08/14 08:04:13;;;;;;;1.27;1.20;;;;;;;21.60;nan;100416.41;4974710;28;20026;-72
2023/08/14 08:06:39;;;;;;;1.40;1.30;;;;;;;21.59;nan;100406.81;4979855;28;20092;-73
2023/08/14 08:09:04;;;;;;;1.42;1.33;;;;;;;21.60;nan;100426.16;4982046;28;20033;-74
2023/08/14 08:11:30;;;;;;;1.73;1.40;;;;;;;21.59;nan;100420.03;4981617;28;20014;-74
2023/08/14 08:13:56;;;;;;;1.63;1.50;;;;;;;21.60;nan;100416.41;4976390;28;20045;-73
2023/08/14 08:16:21;;;;;;;1.70;1.60;;;;;;;21.60;nan;100418.22;4979050;28;20034;-73
2023/08/14 08:18:46;;;;;;;1.42;1.33;;;;;;;21.61;nan;100417.25;4980832;28;20025;-73
2023/08/14 08:21:12;;;;;;;1.30;1.20;;;;;;;21.60;nan;100418.22;4980337;28;20035;-72
2023/08/14 08:23:37;;;;;;;1.23;1.13;;;;;;;21.61;nan;100430.47;4969241;28;20046;-73
2023/08/14 08:26:02;;;;;;;1.08;1.08;;;;;;;21.61;nan;100430.47;4978536;28;20038;-74
2023/08/14 08:28:28;;;;;;;1.25;1.15;;;;;;;21.62;nan;100448.03;4981299;28;20040;-73
2023/08/14 08:30:53;;;;;;;1.10;1.10;;;;;;;21.61;nan;100438.38;4981019;28;20164;-73
2023/08/14 08:33:19;;;;;;;1.60;1.30;;;;;;;21.61;nan;100435.75;4983454;28;20030;-73
2023/08/14 08:35:44;;;;;;;1.38;1.27;;;;;;;21.62;nan;100434.81;4959328;28;20100;-73
2023/08/14 08:38:10;;;;;;;1.30;1.20;;;;;;;21.61;nan;100444.53;4980437;28;20117;-75
2023/08/14 08:40:35;;;;;;;1.58;1.48;;;;;;;21.62;nan;100433.00;4981607;28;20592;-74
2023/08/14 08:43:02;;;;;;;1.55;1.38;;;;;;;21.62;nan;100438.28;4989940;28;20060;-73
2023/08/14 08:45:31;;;;;;;1.20;1.10;;;;;;;21.61;nan;100433.97;4990009;28;20040;-74
2023/08/14 08:47:56;;;;;;;;;;;;;;;21.62;nan;100422.44;4981233;28;21129;-74
2023/08/14 08:50:22;;;;;;;1.77;1.40;;;;;;;21.63;nan;100428.56;4977544;28;19928;-73
2023/08/14 08:52:47;;;;;;;1.40;1.40;;;;;;;21.62;nan;100416.31;4978473;28;20286;-73
2023/08/14 08:55:13;;;;;;;1.45;1.10;;;;;;;21.63;nan;100423.28;4973911;28;20038;-74
2023/08/14 08:57:38;;;;;;;1.60;1.50;;;;;;;21.63;nan;100423.28;4980189;28;20034;-72
2023/08/14 09:00:05;;;;;;;1.23;1.13;;;;;;;21.64;nan;100424.94;4979461;28;20030;-75
2023/08/14 09:02:30;;;;;;;1.33;1.23;;;;;;;21.63;nan;100418.81;4988360;28;20032;-72
2023/08/14 09:04:55;;;;;;;1.27;1.17;;;;;;;21.64;nan;100414.38;4988262;28;20033;-73
2023/08/14 09:07:21;;;;;;;1.75;1.33;;;;;;;21.64;nan;100417.03;4982590;28;20025;-75
2023/08/14 09:09:47;;;;;;;1.15;1.10;;;;;;;21.64;nan;100417.84;4979849;28;20034;-73
2023/08/14 09:12:12;;;;;;;1.35;1.30;;;;;;;21.64;nan;100419.66;4977936;28;20026;-72
2023/08/14 09:14:44;;;;;;;1.95;1.75;;;;;;;21.64;nan;100428.44;4974666;28;20787;-71
2023/08/14 09:17:11;;;;;;;1.10;1.10;;;;;;;21.65;nan;100427.47;4977955;28;20171;-72
2023/08/14 09:19:38;;;;;;;1.95;1.50;;;;;;;21.65;nan;100423.97;4979877;28;20044;-73
2023/08/14 09:22:04;;;;;;;1.23;1.10;;;;;;;21.65;nan;100413.41;4983218;28;20042;-73
2023/08/14 09:24:33;;;;;;;1.17;1.13;;;;;;;21.65;nan;100421.34;4993943;28;20805;-74
2023/08/14 09:26:59;;;;;;;1.33;1.20;;;;;;;21.65;nan;100413.41;4981430;28;20042;-73
2023/08/14 09:29:24;;;;;;;1.38;1.27;;;;;;;21.65;nan;100405.47;4979557;28;20042;-72
2023/08/14 09:31:51;;;;;;;1.23;1.17;;;;;;;21.65;nan;100419.53;4983133;28;20029;-72
2023/08/14 09:34:17;;;;;;;1.95;1.30;;;;;;;21.65;nan;100416.06;4992242;28;20030;-73
2023/08/14 09:36:43;;;;;;;1.77;1.67;;;;;;;21.66;nan;100420.38;4984073;28;20038;-72
2023/08/14 09:39:09;;;;;;;1.30;1.20;;;;;;;21.65;nan;100411.59;4980326;28;20081;-73
2023/08/14 09:41:36;;;;;;;1.20;1.10;;;;;;;21.66;nan;100407.16;4979379;28;20030;-71
2023/08/14 09:44:01;;;;;;;1.45;1.35;;;;;;;21.65;nan;100414.25;4974234;28;20053;-72
2023/08/14 09:46:28;;;;;;;1.33;1.23;;;;;;;21.67;nan;100408.88;4976604;28;20034;-72
2023/08/14 09:48:53;;;;;;;1.35;1.25;;;;;;;21.66;nan;100405.34;4979229;28;20823;-73
2023/08/14 09:51:19;;;;;;;1.67;1.58;;;;;;;21.66;nan;100413.28;4979154;28;20037;-72
2023/08/14 09:53:50;;;;;;;1.30;1.20;;;;;;;21.66;nan;100421.22;4978786;28;20064;-72
2023/08/14 09:56:17;;;;;;;1.38;1.27;;;;;;;21.66;nan;100423.84;4977345;28;20828;-73
2023/08/14 09:58:43;;;;;;;1.25;1.25;;;;;;;21.67;nan;100424.72;4979324;28;20030;-73
2023/08/14 10:01:12;;;;;;;1.00;1.00;;;;;;;21.67;nan;100420.28;4980442;28;20065;-72
2023/08/14 10:03:39;;;;;;;1.33;1.23;;;;;;;21.67;nan;100424.72;4990750;28;20441;-73
2023/08/14 10:06:05;;;;;;;1.13;1.10;;;;;;;21.67;nan;100411.50;4987622;28;20037;-73
2023/08/14 10:08:34;;;;;;;1.10;1.10;;;;;;;21.68;nan;100421.09;4984151;28;20053;-73
2023/08/14 10:11:02;;;;;;;1.17;1.17;;;;;;;21.67;nan;100415.00;4985188;28;20038;-73
2023/08/14 10:13:28;;;;;;;1.33;1.30;;;;;;;21.68;nan;100414.03;4980370;28;20080;-73
2023/08/14 10:15:55;;;;;;;1.40;1.30;;;;;;;21.67;nan;100412.34;4981388;28;20026;-73
2023/08/14 10:18:22;;;;;;;1.20;1.10;;;;;;;21.68;nan;100410.53;4984792;28;20037;-73
2023/08/14 10:20:49;;;;;;;1.35;1.30;;;;;;;21.69;nan;100414.84;4982572;28;20033;-73
2023/08/14 10:23:14;;;;;;;1.30;1.20;;;;;;;21.68;nan;100410.53;4993697;28;20060;-73
2023/08/14 10:25:42;;;;;;;1.70;1.30;;;;;;;21.69;nan;100414.84;4994975;28;20038;-73
2023/08/14 10:28:09;;;;;;;1.15;1.05;;;;;;;21.69;nan;100412.22;4984394;28;20559;-73
2023/08/14 10:30:35;;;;;;;1.00;1.00;;;;;;;21.69;nan;100412.22;4983312;28;20037;-73
2023/08/14 10:33:01;;;;;;;1.40;1.30;;;;;;;21.70;nan;100416.53;4980854;28;20097;-73
2023/08/14 10:35:26;;;;;;;1.48;1.30;;;;;;;21.69;nan;100417.50;4982253;28;20029;-73
2023/08/14 10:37:52;;;;;;;1.27;1.20;;;;;;;21.70;nan;100413.88;4982984;28;20116;-73
2023/08/14 10:40:23;;;;;;;1.40;1.30;;;;;;;21.70;nan;100413.88;4966789;28;20129;-73
2023/08/14 10:42:55;;;;;;;1.00;1.00;;;;;;;21.70;nan;100419.16;4993539;28;20065;-73
2023/08/14 10:45:22;;;;;;;1.20;1.10;;;;;;;21.69;nan;100420.97;4983398;28;20534;-72
2023/08/14 10:47:47;;;;;;;1.40;1.27;;;;;;;21.69;nan;100423.63;4983811;28;20417;-73
2023/08/14 10:50:28;;;;;;;1.10;1.10;;;;;;;21.70;nan;100432.38;4982528;28;20033;-72
2023/08/14 10:52:55;;;;;;;1.30;1.20;;;;;;;21.71;nan;100441.97;4972319;28;20914;-72
2023/08/14 10:55:39;;;;;;;2.28;1.40;;;;;;;21.71;nan;100447.28;4990402;28;20935;-72
2023/08/14 10:58:30;;;;;;;1.35;1.23;;;;;;;21.71;nan;100428.78;4982410;28;20096;-72
2023/08/14 11:00:56;;;;;;;1.40;1.23;;;;;;;21.71;nan;100434.06;4983782;28;20125;-75
2023/08/14 11:03:22;;;;;;;1.20;1.10;;;;;;;21.71;nan;100426.13;4978041;28;20752;-73
2023/08/14 11:05:47;;;;;;;1.83;1.65;;;;;;;21.70;nan;100420.00;4980708;28;20030;-73
2023/08/14 11:08:13;;;;;;;1.42;1.33;;;;;;;21.72;nan;100421.69;4982508;28;20041;-73
2023/08/14 11:10:40;;;;;;;1.30;1.20;;;;;;;21.73;nan;100418.09;4983466;28;20042;-72
2023/08/14 11:13:12;;;;;;;2.83;1.23;;;;;;;21.72;nan;100419.03;4982231;28;20041;-73
2023/08/14 11:15:41;;;;;;;1.42;1.33;;;;;;;21.72;nan;100416.41;4993598;28;20040;-73
2023/08/14 11:18:10;;;;;;;1.50;1.40;;;;;;;21.72;nan;100417.22;4980377;28;20522;-72
2023/08/14 11:20:37;;;;;;;1.50;1.40;;;;;;;21.73;nan;100424.22;4982433;28;20482;-72
2023/08/14 11:23:03;;;;;;;2.20;1.50;;;;;;;21.73;nan;100424.22;4984691;28;20049;-73
2023/08/14 11:25:29;;;;;;;2.30;1.50;;;;;;;21.72;nan;100419.88;4976718;28;20041;-72
2023/08/14 11:27:55;;;;;;;1.10;1.10;;;;;;;21.73;nan;100421.59;4982145;28;20042;-72
2023/08/14 11:30:22;;;;;;;1.20;1.10;;;;;;;21.73;nan;100413.66;4980924;28;20507;-72
2023/08/14 11:32:49;;;;;;;1.40;1.23;;;;;;;21.72;nan;100404.03;4983424;28;20462;-72
2023/08/14 11:35:14;;;;;;;1.50;1.40;;;;;;;21.74;nan;100406.56;4982820;28;20396;-73
2023/08/14 11:37:40;;;;;;;1.33;1.23;;;;;;;21.73;nan;100396.97;4981650;28;20041;-73
2023/08/14 11:40:10;;;;;;;1.25;1.15;;;;;;;21.74;nan;100398.63;4981577;28;20041;-73
2023/08/14 11:42:37;;;;;;;1.38;1.27;;;;;;;21.75;nan;100395.88;4979050;28;20034;-73